sensor_id;sensor_type;location;lat;lon;timestamp;pressure;altitude;pressure_sealevel;temperature;humidity
18765;BME280;9511;54.242;12.448;2023-02-23T04:05:44;101124.28;;;2.75;100.00
18765;BME280;9511;54.242;12.448;2023-02-23T04:08:34;101123.38;;;2.75;100.00
18765;BME280;9511;54.242;12.448;2023-02-23T04:11:27;101119.06;;;2.75;100.00
18765;BME280;9511;54.242;12.448;2023-02-23T04:14:17;101108.81;;;2.78;100.00
18765;BME280;9511;54.242;12.448;2023-02-23T04:16:46;101121.06;;;2.79;100.00
18765;BME280;9511;54.242;12.448;2023-02-23T04:19:12;101117.94;;;2.85;100.00
18765;BME280;9511;54.242;12.448;2023-02-23T04:21:41;101120.53;;;2.85;100.00
18765;BME280;9511;54.242;12.448;2023-02-23T04:24:09;101116.22;;;2.85;100.00
18765;BME280;9511;54.242;12.448;2023-02-23T04:26:37;101109.03;;;2.81;100.00
18765;BME280;9511;54.242;12.448;2023-02-23T04:29:04;101107.38;;;2.83;100.00
18765;BME280;9511;54.242;12.448;2023-02-23T04:31:31;101107.56;;;2.86;100.00
18765;BME280;9511;54.242;12.448;2023-02-23T04:33:58;101116.22;;;2.85;100.00
18765;BME280;9511;54.242;12.448;2023-02-23T04:36:26;101117.31;;;2.89;100.00
18765;BME280;9511;54.242;12.448;2023-02-23T04:38:54;101127.03;;;2.91;100.00
18765;BME280;9511;54.242;12.448;2023-02-23T04:41:22;101123.63;;;2.92;100.00
18765;BME280;9511;54.242;12.448;2023-02-23T04:43:50;101121.28;;;2.97;100.00
18765;BME280;9511;54.242;12.448;2023-02-23T04:46:17;101122.91;;;2.95;100.00
18765;BME280;9511;54.242;12.448;2023-02-23T04:48:44;101113.56;;;2.99;100.00
18765;BME280;9511;54.242;12.448;2023-02-23T04:51:12;101120.22;;;2.93;100.00
18765;BME280;9511;54.242;12.448;2023-02-23T04:53:39;101117.47;;;2.92;100.00
18765;BME280;9511;54.242;12.448;2023-02-23T04:56:08;101121.13;;;2.94;100.00
18765;BME280;9511;54.242;12.448;2023-02-23T04:58:36;101121.19;;;2.96;100.00
18765;BME280;9511;54.242;12.448;2023-02-23T05:01:04;101127.63;;;3.01;100.00
18765;BME280;9511;54.242;12.448;2023-02-23T05:03:32;101125.00;;;3.01;100.00
18765;BME280;9511;54.242;12.448;2023-02-23T05:06:00;101131.94;;;3.00;100.00
18765;BME280;9511;54.242;12.448;2023-02-23T05:08:27;101130.03;;;2.98;100.00
18765;BME280;9511;54.242;12.448;2023-02-23T05:10:55;101122.19;;;2.98;100.00
18765;BME280;9511;54.242;12.448;2023-02-23T05:13:23;101120.59;;;3.00;100.00
18765;BME280;9511;54.242;12.448;2023-02-23T05:15:55;101117.06;;;2.99;100.00
18765;BME280;9511;54.242;12.448;2023-02-23T05:18:23;101124.19;;;3.02;100.00
18765;BME280;9511;54.242;12.448;2023-02-23T05:20:51;101120.75;;;3.03;100.00
18765;BME280;9511;54.242;12.448;2023-02-23T05:23:19;101110.66;;;3.09;100.00
18765;BME280;9511;54.242;12.448;2023-02-23T05:25:46;101111.69;;;3.11;100.00
18765;BME280;9511;54.242;12.448;2023-02-23T05:28:14;101112.66;;;3.13;100.00
18765;BME280;9511;54.242;12.448;2023-02-23T05:30:42;101111.25;;;3.18;99.75
18765;BME280;9511;54.242;12.448;2023-02-23T05:33:10;101113.66;;;3.15;99.76
18765;BME280;9511;54.242;12.448;2023-02-23T05:35:39;101106.19;;;3.21;99.47
18765;BME280;9511;54.242;12.448;2023-02-23T05:38:06;101107.44;;;3.13;99.25
18765;BME280;9511;54.242;12.448;2023-02-23T05:40:35;101104.22;;;3.17;99.22
18765;BME280;9511;54.242;12.448;2023-02-23T05:43:02;101112.06;;;3.17;98.53
18765;BME280;9511;54.242;12.448;2023-02-23T05:45:29;101102.50;;;3.17;98.91
18765;BME280;9511;54.242;12.448;2023-02-23T05:47:58;101108.78;;;3.21;99.20
18765;BME280;9511;54.242;12.448;2023-02-23T05:50:25;101092.22;;;3.35;98.94
18765;BME280;9511;54.242;12.448;2023-02-23T05:52:53;101103.16;;;3.28;98.71
18765;BME280;9511;54.242;12.448;2023-02-23T05:55:20;101101.97;;;3.23;98.33
18765;BME280;9511;54.242;12.448;2023-02-23T05:57:47;101103.03;;;3.12;98.49
18765;BME280;9511;54.242;12.448;2023-02-23T06:00:16;101095.34;;;3.15;98.54
18765;BME280;9511;54.242;12.448;2023-02-23T06:02:44;101093.56;;;3.14;98.00
18765;BME280;9511;54.242;12.448;2023-02-23T06:05:12;101096.25;;;3.01;98.41
18765;BME280;9511;54.242;12.448;2023-02-23T06:07:40;101094.09;;;2.93;98.94
18765;BME280;9511;54.242;12.448;2023-02-23T06:10:08;101099.41;;;2.95;99.19
18765;BME280;9511;54.242;12.448;2023-02-23T06:12:36;101103.88;;;2.83;99.38
18765;BME280;9511;54.242;12.448;2023-02-23T06:15:04;101100.53;;;2.85;99.70
18765;BME280;9511;54.242;12.448;2023-02-23T06:17:32;101097.09;;;2.86;99.57
18765;BME280;9511;54.242;12.448;2023-02-23T06:19:59;101088.50;;;2.87;100.00
18765;BME280;9511;54.242;12.448;2023-02-23T06:22:31;101090.97;;;2.86;99.96
18765;BME280;9511;54.242;12.448;2023-02-23T06:24:58;101098.38;;;2.78;100.00
18765;BME280;9511;54.242;12.448;2023-02-23T06:27:27;101094.03;;;2.79;100.00
18765;BME280;9511;54.242;12.448;2023-02-23T06:29:54;101096.84;;;2.82;100.00
18765;BME280;9511;54.242;12.448;2023-02-23T06:32:21;101101.78;;;2.77;100.00
18765;BME280;9511;54.242;12.448;2023-02-23T06:34:50;101097.25;;;2.75;100.00
18765;BME280;9511;54.242;12.448;2023-02-23T06:37:17;101104.31;;;2.76;100.00
18765;BME280;9511;54.242;12.448;2023-02-23T06:39:46;101108.44;;;2.72;100.00
18765;BME280;9511;54.242;12.448;2023-02-23T06:42:13;101119.88;;;2.74;100.00
18765;BME280;9511;54.242;12.448;2023-02-23T06:44:41;101120.88;;;2.76;100.00
18765;BME280;9511;54.242;12.448;2023-02-23T06:47:08;101115.66;;;2.76;100.00
18765;BME280;9511;54.242;12.448;2023-02-23T06:49:36;101107.00;;;2.77;100.00
18765;BME280;9511;54.242;12.448;2023-02-23T06:52:05;101115.03;;;2.80;100.00
18765;BME280;9511;54.242;12.448;2023-02-23T06:54:32;101109.28;;;2.86;100.00
18765;BME280;9511;54.242;12.448;2023-02-23T06:57:01;101115.84;;;2.79;100.00
18765;BME280;9511;54.242;12.448;2023-02-23T06:59:28;101119.34;;;2.80;100.00
18765;BME280;9511;54.242;12.448;2023-02-23T07:01:56;101110.59;;;2.79;100.00
18765;BME280;9511;54.242;12.448;2023-02-23T07:04:23;101114.63;;;2.87;100.00
18765;BME280;9511;54.242;12.448;2023-02-23T07:06:51;101119.94;;;2.89;100.00
18765;BME280;9511;54.242;12.448;2023-02-23T07:09:19;101112.16;;;2.90;100.00
18765;BME280;9511;54.242;12.448;2023-02-23T07:11:46;101120.38;;;2.97;100.00
18765;BME280;9511;54.242;12.448;2023-02-23T07:14:15;101114.72;;;3.04;100.00
18765;BME280;9511;54.242;12.448;2023-02-23T07:16:42;101114.72;;;3.04;100.00
18765;BME280;9511;54.242;12.448;2023-02-23T07:19:09;101113.94;;;3.05;100.00
18765;BME280;9511;54.242;12.448;2023-02-23T07:21:36;101105.66;;;3.12;100.00
18765;BME280;9511;54.242;12.448;2023-02-23T07:24:04;101108.72;;;3.19;100.00
18765;BME280;9511;54.242;12.448;2023-02-23T07:26:32;101112.22;;;3.20;100.00
18765;BME280;9511;54.242;12.448;2023-02-23T07:29:00;101105.41;;;3.22;100.00
18765;BME280;9511;54.242;12.448;2023-02-23T07:31:28;101100.41;;;3.27;100.00
18765;BME280;9511;54.242;12.448;2023-02-23T07:33:56;101096.72;;;3.23;100.00
18765;BME280;9511;54.242;12.448;2023-02-23T07:36:23;101110.34;;;3.32;100.00
18765;BME280;9511;54.242;12.448;2023-02-23T07:38:51;101100.97;;;3.36;100.00
18765;BME280;9511;54.242;12.448;2023-02-23T07:41:19;101089.16;;;3.42;100.00
18765;BME280;9511;54.242;12.448;2023-02-23T07:43:46;101086.63;;;3.44;99.99
18765;BME280;9511;54.242;12.448;2023-02-23T07:46:13;101090.94;;;3.43;99.44
18765;BME280;9511;54.242;12.448;2023-02-23T07:48:44;101092.31;;;3.52;98.88
18765;BME280;9511;54.242;12.448;2023-02-23T07:51:13;101092.47;;;3.55;98.99
18765;BME280;9511;54.242;12.448;2023-02-23T07:53:41;101087.44;;;3.58;98.69
18765;BME280;9511;54.242;12.448;2023-02-23T07:56:10;101087.97;;;3.67;98.33
18765;BME280;9511;54.242;12.448;2023-02-23T07:58:38;101087.88;;;3.65;98.24
18765;BME280;9511;54.242;12.448;2023-02-23T08:01:06;101083.53;;;3.66;98.12
18765;BME280;9511;54.242;12.448;2023-02-23T08:03:33;101087.41;;;3.72;98.12
18765;BME280;9511;54.242;12.448;2023-02-23T08:06:02;101090.84;;;3.71;97.75
18765;BME280;9511;54.242;12.448;2023-02-23T08:08:30;101091.03;;;3.75;97.85
18765;BME280;9511;54.242;12.448;2023-02-23T08:11:01;101089.47;;;3.78;97.72
18765;BME280;9511;54.242;12.448;2023-02-23T08:13:28;101083.63;;;3.82;97.49
18765;BME280;9511;54.242;12.448;2023-02-23T08:15:57;101091.00;;;3.89;97.59
18765;BME280;9511;54.242;12.448;2023-02-23T08:18:24;101087.25;;;3.84;97.05
18765;BME280;9511;54.242;12.448;2023-02-23T08:20:56;101086.09;;;3.95;97.52
18765;BME280;9511;54.242;12.448;2023-02-23T08:23:25;101081.97;;;3.99;97.19
18765;BME280;9511;54.242;12.448;2023-02-23T08:25:53;101089.88;;;4.00;97.24
18765;BME280;9511;54.242;12.448;2023-02-23T08:28:20;101083.03;;;4.03;96.85
18765;BME280;9511;54.242;12.448;2023-02-23T08:30:48;101089.69;;;4.12;96.53
18765;BME280;9511;54.242;12.448;2023-02-23T08:33:15;101087.81;;;4.10;96.45
18765;BME280;9511;54.242;12.448;2023-02-23T08:35:42;101088.44;;;4.06;96.37
18765;BME280;9511;54.242;12.448;2023-02-23T08:38:10;101088.06;;;4.14;96.16
18765;BME280;9511;54.242;12.448;2023-02-23T08:40:38;101089.47;;;4.24;96.24
18765;BME280;9511;54.242;12.448;2023-02-23T08:43:06;101091.50;;;4.30;95.92
18765;BME280;9511;54.242;12.448;2023-02-23T08:45:33;101089.91;;;4.32;95.85
18765;BME280;9511;54.242;12.448;2023-02-23T08:48:00;101086.47;;;4.33;95.62
18765;BME280;9511;54.242;12.448;2023-02-23T08:50:28;101085.06;;;4.39;96.16
18765;BME280;9511;54.242;12.448;2023-02-23T08:52:55;101092.63;;;4.49;96.15
18765;BME280;9511;54.242;12.448;2023-02-23T08:55:22;101084.69;;;4.48;95.95
18765;BME280;9511;54.242;12.448;2023-02-23T08:57:51;101087.22;;;4.46;96.25
18765;BME280;9511;54.242;12.448;2023-02-23T09:00:19;101079.59;;;4.51;96.48
18765;BME280;9511;54.242;12.448;2023-02-23T09:02:46;101080.63;;;4.53;96.10
18765;BME280;9511;54.242;12.448;2023-02-23T09:05:14;101081.84;;;4.60;95.88
18765;BME280;9511;54.242;12.448;2023-02-23T09:07:43;101084.03;;;4.52;95.86
18765;BME280;9511;54.242;12.448;2023-02-23T09:10:12;101091.16;;;4.55;96.02
18765;BME280;9511;54.242;12.448;2023-02-23T09:12:39;101091.63;;;4.64;96.20
18765;BME280;9511;54.242;12.448;2023-02-23T09:15:09;101096.88;;;4.64;96.16
18765;BME280;9511;54.242;12.448;2023-02-23T09:17:37;101093.03;;;4.73;96.47
18765;BME280;9511;54.242;12.448;2023-02-23T09:20:05;101099.38;;;4.77;96.14
18765;BME280;9511;54.242;12.448;2023-02-23T09:22:32;101086.91;;;4.73;96.11
18765;BME280;9511;54.242;12.448;2023-02-23T09:25:00;101088.88;;;4.77;96.35
18765;BME280;9511;54.242;12.448;2023-02-23T09:27:27;101092.81;;;4.85;96.03
18765;BME280;9511;54.242;12.448;2023-02-23T09:29:54;101086.47;;;4.82;96.15
18765;BME280;9511;54.242;12.448;2023-02-23T09:32:23;101093.56;;;4.83;95.51
18765;BME280;9511;54.242;12.448;2023-02-23T09:34:50;101090.81;;;4.81;95.95
18765;BME280;9511;54.242;12.448;2023-02-23T09:37:18;101090.09;;;4.84;96.13
18765;BME280;9511;54.242;12.448;2023-02-23T09:39:45;101090.81;;;4.81;96.29
18765;BME280;9511;54.242;12.448;2023-02-23T09:42:32;101089.22;;;4.83;96.27
18765;BME280;9511;54.242;12.448;2023-02-23T09:45:11;101088.78;;;4.92;96.48
18765;BME280;9511;54.242;12.448;2023-02-23T09:47:52;101096.75;;;4.93;96.54
18765;BME280;9511;54.242;12.448;2023-02-23T09:50:25;101093.13;;;4.91;97.29
18765;BME280;9511;54.242;12.448;2023-02-23T09:52:56;101102.72;;;4.91;97.00
18765;BME280;9511;54.242;12.448;2023-02-23T09:55:24;101087.47;;;4.84;97.55
18765;BME280;9511;54.242;12.448;2023-02-23T09:57:56;101083.66;;;4.77;98.00
18765;BME280;9511;54.242;12.448;2023-02-23T10:00:25;101079.19;;;4.92;98.57
18765;BME280;9511;54.242;12.448;2023-02-23T10:03:10;101088.53;;;5.03;98.48
18765;BME280;9511;54.242;12.448;2023-02-23T10:05:45;101082.94;;;5.14;98.82
18765;BME280;9511;54.242;12.448;2023-02-23T10:08:21;101081.16;;;5.13;98.47
18765;BME280;9511;54.242;12.448;2023-02-23T10:10:57;101079.63;;;5.34;98.83
18765;BME280;9511;54.242;12.448;2023-02-23T10:13:32;101072.66;;;5.35;98.56
18765;BME280;9511;54.242;12.448;2023-02-23T10:16:08;101078.34;;;5.44;98.70
18765;BME280;9511;54.242;12.448;2023-02-23T10:18:48;101083.41;;;5.39;98.45
18765;BME280;9511;54.242;12.448;2023-02-23T10:21:21;101091.75;;;5.32;98.69
18765;BME280;9511;54.242;12.448;2023-02-23T10:23:52;101085.44;;;5.11;99.01
18765;BME280;9511;54.242;12.448;2023-02-23T10:26:23;101093.19;;;5.09;99.59
18765;BME280;9511;54.242;12.448;2023-02-23T10:28:53;101093.44;;;5.14;99.75
18765;BME280;9511;54.242;12.448;2023-02-23T10:31:27;101090.97;;;5.17;100.00
18765;BME280;9511;54.242;12.448;2023-02-23T10:34:01;101080.06;;;5.25;100.00
18765;BME280;9511;54.242;12.448;2023-02-23T10:36:34;101078.22;;;5.41;100.00
18765;BME280;9511;54.242;12.448;2023-02-23T10:39:04;101082.63;;;5.42;100.00
18765;BME280;9511;54.242;12.448;2023-02-23T10:41:33;101084.13;;;5.37;100.00
18765;BME280;9511;54.242;12.448;2023-02-23T10:44:03;101075.66;;;5.42;100.00
18765;BME280;9511;54.242;12.448;2023-02-23T10:46:35;101068.56;;;5.57;100.00
18765;BME280;9511;54.242;12.448;2023-02-23T10:49:06;101076.94;;;5.50;100.00
18765;BME280;9511;54.242;12.448;2023-02-23T10:51:37;101067.22;;;5.48;100.00
18765;BME280;9511;54.242;12.448;2023-02-23T10:54:33;101068.16;;;5.50;100.00
18765;BME280;9511;54.242;12.448;2023-02-23T10:57:02;101061.38;;;5.53;100.00
18765;BME280;9511;54.242;12.448;2023-02-23T10:59:30;101065.44;;;5.65;100.00
18765;BME280;9511;54.242;12.448;2023-02-23T11:01:58;101052.44;;;5.68;100.00
18765;BME280;9511;54.242;12.448;2023-02-23T11:04:28;101055.69;;;5.80;100.00
18765;BME280;9511;54.242;12.448;2023-02-23T11:07:06;101049.59;;;5.81;100.00
18765;BME280;9511;54.242;12.448;2023-02-23T11:09:33;101054.19;;;5.85;100.00
18765;BME280;9511;54.242;12.448;2023-02-23T11:12:03;101053.69;;;5.92;100.00
18765;BME280;9511;54.242;12.448;2023-02-23T11:14:41;101057.44;;;5.97;100.00
18765;BME280;9511;54.242;12.448;2023-02-23T11:17:23;101047.06;;;6.00;100.00
18765;BME280;9511;54.242;12.448;2023-02-23T11:19:58;101046.94;;;5.97;100.00
18765;BME280;9511;54.242;12.448;2023-02-23T11:22:31;101038.91;;;5.94;100.00
18765;BME280;9511;54.242;12.448;2023-02-23T11:25:00;101042.66;;;5.99;100.00
18765;BME280;9511;54.242;12.448;2023-02-23T11:27:29;101038.28;;;6.00;100.00
18765;BME280;9511;54.242;12.448;2023-02-23T11:29:57;101035.13;;;6.07;100.00
18765;BME280;9511;54.242;12.448;2023-02-23T11:32:31;101031.81;;;6.11;100.00
18765;BME280;9511;54.242;12.448;2023-02-23T11:35:13;101031.25;;;5.99;100.00
18765;BME280;9511;54.242;12.448;2023-02-23T11:37:53;101021.81;;;6.02;100.00
18765;BME280;9511;54.242;12.448;2023-02-23T11:40:23;101027.19;;;6.05;100.00
18765;BME280;9511;54.242;12.448;2023-02-23T11:42:54;101017.94;;;6.13;100.00
18765;BME280;9511;54.242;12.448;2023-02-23T11:45:22;101009.91;;;6.10;100.00
18765;BME280;9511;54.242;12.448;2023-02-23T11:47:53;101009.38;;;6.18;100.00
18765;BME280;9511;54.242;12.448;2023-02-23T11:50:25;101010.66;;;6.26;100.00
18765;BME280;9511;54.242;12.448;2023-02-23T11:52:56;101005.63;;;6.12;100.00
18765;BME280;9511;54.242;12.448;2023-02-23T11:55:27;100996.25;;;6.18;100.00
18765;BME280;9511;54.242;12.448;2023-02-23T11:58:10;100994.13;;;6.28;100.00
18765;BME280;9511;54.242;12.448;2023-02-23T12:00:54;100989.34;;;6.39;100.00
18765;BME280;9511;54.242;12.448;2023-02-23T12:03:24;100990.19;;;6.38;100.00
18765;BME280;9511;54.242;12.448;2023-02-23T12:05:54;100991.63;;;6.31;100.00
18765;BME280;9511;54.242;12.448;2023-02-23T12:08:32;100995.16;;;6.32;100.00
18765;BME280;9511;54.242;12.448;2023-02-23T12:11:04;100991.03;;;6.37;100.00
18765;BME280;9511;54.242;12.448;2023-02-23T12:13:35;100997.34;;;6.42;100.00
18765;BME280;9511;54.242;12.448;2023-02-23T12:16:10;100986.09;;;6.45;100.00
18765;BME280;9511;54.242;12.448;2023-02-23T12:18:44;100988.22;;;6.53;100.00
18765;BME280;9511;54.242;12.448;2023-02-23T12:21:23;100989.44;;;6.60;100.00
18765;BME280;9511;54.242;12.448;2023-02-23T12:24:00;100989.22;;;6.55;100.00
18765;BME280;9511;54.242;12.448;2023-02-23T12:26:32;100979.72;;;6.59;100.00
18765;BME280;9511;54.242;12.448;2023-02-23T12:29:04;100985.06;;;6.60;100.00
18765;BME280;9511;54.242;12.448;2023-02-23T12:31:41;100976.97;;;6.56;100.00
18765;BME280;9511;54.242;12.448;2023-02-23T12:34:16;100980.09;;;6.67;100.00
18765;BME280;9511;54.242;12.448;2023-02-23T12:36:49;100981.44;;;6.58;100.00
18765;BME280;9511;54.242;12.448;2023-02-23T12:39:23;100983.44;;;6.64;100.00
18765;BME280;9511;54.242;12.448;2023-02-23T12:42:00;100977.44;;;6.67;100.00
18765;BME280;9511;54.242;12.448;2023-02-23T12:44:38;100968.31;;;6.78;100.00
18765;BME280;9511;54.242;12.448;2023-02-23T12:47:15;100975.09;;;6.73;100.00
18765;BME280;9511;54.242;12.448;2023-02-23T12:49:51;100975.41;;;6.80;100.00
18765;BME280;9511;54.242;12.448;2023-02-23T12:52:24;100984.34;;;6.84;100.00
18765;BME280;9511;54.242;12.448;2023-02-23T12:54:54;100975.19;;;6.76;100.00
18765;BME280;9511;54.242;12.448;2023-02-23T12:57:26;100972.47;;;6.73;100.00
18765;BME280;9511;54.242;12.448;2023-02-23T13:00:09;100972.19;;;6.67;100.00
18765;BME280;9511;54.242;12.448;2023-02-23T13:02:52;100974.09;;;6.71;100.00
18765;BME280;9511;54.242;12.448;2023-02-23T13:05:25;100967.88;;;6.69;100.00
18765;BME280;9511;54.242;12.448;2023-02-23T13:08:02;100968.84;;;6.71;100.00
18765;BME280;9511;54.242;12.448;2023-02-23T13:10:42;100963.31;;;6.64;100.00
18765;BME280;9511;54.242;12.448;2023-02-23T13:13:24;100964.31;;;6.67;100.00
18765;BME280;9511;54.242;12.448;2023-02-23T13:16:04;100963.59;;;6.71;100.00
18765;BME280;9511;54.242;12.448;2023-02-23T13:18:38;100969.16;;;6.77;100.00
18765;BME280;9511;54.242;12.448;2023-02-23T13:21:13;100959.31;;;6.73;100.00
18765;BME280;9511;54.242;12.448;2023-02-23T13:23:52;100963.09;;;6.79;100.00
18765;BME280;9511;54.242;12.448;2023-02-23T13:26:28;100955.28;;;6.81;100.00
18765;BME280;9511;54.242;12.448;2023-02-23T13:29:01;100955.28;;;6.81;100.00
18765;BME280;9511;54.242;12.448;2023-02-23T13:31:31;100956.38;;;6.86;100.00
18765;BME280;9511;54.242;12.448;2023-02-23T13:34:01;100947.66;;;6.87;100.00
18765;BME280;9511;54.242;12.448;2023-02-23T13:36:31;100946.91;;;6.89;100.00
18765;BME280;9511;54.242;12.448;2023-02-23T13:39:22;100940.16;;;6.96;100.00
18765;BME280;9511;54.242;12.448;2023-02-23T13:42:04;100931.56;;;7.00;100.00
18765;BME280;9511;54.242;12.448;2023-02-23T13:44:38;100937.84;;;7.04;100.00
18765;BME280;9511;54.242;12.448;2023-02-23T13:47:14;100936.19;;;7.06;100.00
18765;BME280;9511;54.242;12.448;2023-02-23T13:49:50;100930.94;;;7.06;100.00
18765;BME280;9511;54.242;12.448;2023-02-23T13:52:29;100931.84;;;7.06;100.00
18765;BME280;9511;54.242;12.448;2023-02-23T13:54:59;100929.31;;;7.09;100.00
18765;BME280;9511;54.242;12.448;2023-02-23T13:57:30;100931.00;;;7.07;100.00
18765;BME280;9511;54.242;12.448;2023-02-23T13:59:58;100924.00;;;7.08;100.00
18765;BME280;9511;54.242;12.448;2023-02-23T14:02:34;100925.78;;;7.09;100.00
18765;BME280;9511;54.242;12.448;2023-02-23T14:05:05;100929.38;;;7.11;100.00
18765;BME280;9511;54.242;12.448;2023-02-23T14:07:38;100924.19;;;7.12;100.00
18765;BME280;9511;54.242;12.448;2023-02-23T14:10:16;100933.72;;;7.10;100.00
18765;BME280;9511;54.242;12.448;2023-02-23T14:13:03;100931.00;;;7.07;100.00
18765;BME280;9511;54.242;12.448;2023-02-23T14:15:43;100940.94;;;7.14;100.00
18765;BME280;9511;54.242;12.448;2023-02-23T14:18:32;100936.94;;;7.03;100.00
18765;BME280;9511;54.242;12.448;2023-02-23T14:21:15;100943.88;;;6.80;100.00
18765;BME280;9511;54.242;12.448;2023-02-23T14:23:51;100948.59;;;6.68;100.00
18765;BME280;9511;54.242;12.448;2023-02-23T14:26:42;100946.47;;;6.40;100.00
18765;BME280;9511;54.242;12.448;2023-02-23T14:29:25;100946.19;;;6.34;100.00
18765;BME280;9511;54.242;12.448;2023-02-23T14:31:56;100950.00;;;6.21;100.00
18765;BME280;9511;54.242;12.448;2023-02-23T14:34:42;100956.91;;;6.19;100.00
18765;BME280;9511;54.242;12.448;2023-02-23T14:37:16;100950.91;;;6.22;100.00
18765;BME280;9511;54.242;12.448;2023-02-23T14:39:44;100953.38;;;6.19;100.00
18765;BME280;9511;54.242;12.448;2023-02-23T14:42:20;100954.09;;;6.15;100.00
18765;BME280;9511;54.242;12.448;2023-02-23T14:44:47;100956.28;;;6.05;100.00
18765;BME280;9511;54.242;12.448;2023-02-23T14:47:18;100960.69;;;6.06;100.00
18765;BME280;9511;54.242;12.448;2023-02-23T14:49:48;100959.69;;;6.03;100.00
18765;BME280;9511;54.242;12.448;2023-02-23T14:52:20;100958.91;;;6.05;100.00
18765;BME280;9511;54.242;12.448;2023-02-23T14:54:49;100958.78;;;6.02;100.00
18765;BME280;9511;54.242;12.448;2023-02-23T14:57:21;100949.97;;;6.02;100.00
18765;BME280;9511;54.242;12.448;2023-02-23T14:59:55;100951.88;;;6.04;100.00
18765;BME280;9511;54.242;12.448;2023-02-23T15:02:24;100955.31;;;6.03;100.00
18765;BME280;9511;54.242;12.448;2023-02-23T15:04:51;100955.53;;;6.08;100.00
18765;BME280;9511;54.242;12.448;2023-02-23T15:07:21;100949.25;;;6.04;100.00
18765;BME280;9511;54.242;12.448;2023-02-23T15:09:55;100953.66;;;6.05;100.00
18765;BME280;9511;54.242;12.448;2023-02-23T15:12:27;100953.03;;;6.11;100.00
18765;BME280;9511;54.242;12.448;2023-02-23T15:14:55;100945.09;;;6.09;100.00
18765;BME280;9511;54.242;12.448;2023-02-23T15:17:25;100932.25;;;6.16;100.00
18765;BME280;9511;54.242;12.448;2023-02-23T15:19:57;100933.19;;;6.18;100.00
18765;BME280;9511;54.242;12.448;2023-02-23T15:22:27;100942.06;;;6.20;100.00
18765;BME280;9511;54.242;12.448;2023-02-23T15:24:58;100941.28;;;6.22;100.00
18765;BME280;9511;54.242;12.448;2023-02-23T15:27:36;100936.72;;;6.18;100.00
18765;BME280;9511;54.242;12.448;2023-02-23T15:30:19;100933.19;;;6.18;100.00
18765;BME280;9511;54.242;12.448;2023-02-23T15:32:49;100952.41;;;6.17;100.00
18765;BME280;9511;54.242;12.448;2023-02-23T15:35:25;100940.25;;;6.19;100.00
18765;BME280;9511;54.242;12.448;2023-02-23T15:37:53;100941.03;;;6.16;100.00
18765;BME280;9511;54.242;12.448;2023-02-23T15:40:22;100945.22;;;6.12;100.00
18765;BME280;9511;54.242;12.448;2023-02-23T15:42:55;100938.06;;;6.08;100.00
18765;BME280;9511;54.242;12.448;2023-02-23T15:45:30;100936.38;;;6.10;100.00
18765;BME280;9511;54.242;12.448;2023-02-23T15:48:02;100931.97;;;6.09;100.00
18765;BME280;9511;54.242;12.448;2023-02-23T15:50:33;100934.59;;;6.09;100.00
18765;BME280;9511;54.242;12.448;2023-02-23T15:53:04;100932.97;;;6.13;100.00
18765;BME280;9511;54.242;12.448;2023-02-23T15:55:41;100928.50;;;6.10;100.00
18765;BME280;9511;54.242;12.448;2023-02-23T15:58:15;100924.22;;;6.12;100.00
18765;BME280;9511;54.242;12.448;2023-02-23T16:00:49;100933.81;;;6.12;100.00
18765;BME280;9511;54.242;12.448;2023-02-23T16:03:24;100932.94;;;6.11;100.00
18765;BME280;9511;54.242;12.448;2023-02-23T16:06:00;100923.69;;;6.20;100.00
18765;BME280;9511;54.242;12.448;2023-02-23T16:08:28;100919.13;;;6.16;100.00
18765;BME280;9511;54.242;12.448;2023-02-23T16:11:03;100920.97;;;6.18;100.00
18765;BME280;9511;54.242;12.448;2023-02-23T16:13:35;100921.06;;;6.20;100.00
18765;BME280;9511;54.242;12.448;2023-02-23T16:16:04;100908.81;;;6.20;100.00
18765;BME280;9511;54.242;12.448;2023-02-23T16:18:38;100911.44;;;6.20;100.00
18765;BME280;9511;54.242;12.448;2023-02-23T16:21:10;100912.34;;;6.21;100.00
18765;BME280;9511;54.242;12.448;2023-02-23T16:23:43;100919.38;;;6.22;100.00
18765;BME280;9511;54.242;12.448;2023-02-23T16:26:15;100910.56;;;6.20;100.00
18765;BME280;9511;54.242;12.448;2023-02-23T16:28:45;100910.66;;;6.23;100.00
18765;BME280;9511;54.242;12.448;2023-02-23T16:31:21;100907.84;;;6.18;100.00
18765;BME280;9511;54.242;12.448;2023-02-23T16:33:53;100913.09;;;6.18;100.00
18765;BME280;9511;54.242;12.448;2023-02-23T16:36:23;100916.53;;;6.17;100.00
18765;BME280;9511;54.242;12.448;2023-02-23T16:38:56;100914.75;;;6.16;100.00
18765;BME280;9511;54.242;12.448;2023-02-23T16:41:25;100904.25;;;6.16;100.00
18765;BME280;9511;54.242;12.448;2023-02-23T16:43:58;100906.81;;;6.15;100.00
18765;BME280;9511;54.242;12.448;2023-02-23T16:46:28;100901.56;;;6.15;100.00
18765;BME280;9511;54.242;12.448;2023-02-23T16:48:56;100913.72;;;6.12;100.00
18765;BME280;9511;54.242;12.448;2023-02-23T16:51:30;100904.81;;;6.09;100.00
18765;BME280;9511;54.242;12.448;2023-02-23T16:53:58;100911.03;;;6.11;100.00
18765;BME280;9511;54.242;12.448;2023-02-23T16:56:29;100910.13;;;6.10;100.00
18765;BME280;9511;54.242;12.448;2023-02-23T16:59:00;100909.22;;;6.10;100.00
18765;BME280;9511;54.242;12.448;2023-02-23T17:01:28;100911.53;;;6.02;100.00
18765;BME280;9511;54.242;12.448;2023-02-23T17:03:55;100913.31;;;6.03;100.00
18765;BME280;9511;54.242;12.448;2023-02-23T17:06:24;100910.69;;;6.03;100.00
18765;BME280;9511;54.242;12.448;2023-02-23T17:08:51;100913.31;;;6.03;100.00
18765;BME280;9511;54.242;12.448;2023-02-23T17:11:19;100915.84;;;6.02;100.00
18765;BME280;9511;54.242;12.448;2023-02-23T17:13:46;100906.25;;;6.02;100.00
18765;BME280;9511;54.242;12.448;2023-02-23T17:16:15;100914.94;;;6.01;100.00
18765;BME280;9511;54.242;12.448;2023-02-23T17:18:42;100923.81;;;6.03;100.00